Archival Weather

Heathrow

London, United Kingdom (EGLL)

Report from: Tuesday, September 19, 2023 11:50 AM BST
Current time: Monday, June 17, 2024 11:24 AM BST

Current weather – Weather history – Daily summaries
Weather forecast

Temperature18.0°C (64.4°F)
Dew point13.0°C (55.4°F)
Winds 19 kts (9.8 m/s, 21.9 mph) Southwest (220°)
Visibility6.2 mi. (10 km)
Clouds Ceiling: Broken clouds 2,400 ft. (732 m)
Broken clouds 2,800 ft. (853 m)
Altimeter29.68 in.Hg (1005 mB)
Relative humidity73 %
Density altitude841 ft. (256 m)
Remarks Fully automated report
Flight conditions Marginal Visual Meteorological Conditions
Raw dataEGLL 191050Z AUTO 22019KT 9999 BKN024 BKN028 18/13 Q1005
An error has occurred. This application may no longer respond until reloaded. Reload 🗙